sensor_id;sensor_type;location;lat;lon;timestamp;P1;durP1;ratioP1;P2;durP2;ratioP2
34828;SDS011;21042;47.620;12.188;2023-07-29T00:00:11;5.32;;;2.50;;
34828;SDS011;21042;47.620;12.188;2023-07-29T00:02:39;4.95;;;2.13;;
34828;SDS011;21042;47.620;12.188;2023-07-29T00:05:06;3.63;;;2.10;;
34828;SDS011;21042;47.620;12.188;2023-07-29T00:10:00;6.40;;;2.17;;
34828;SDS011;21042;47.620;12.188;2023-07-29T00:12:27;3.75;;;1.77;;
34828;SDS011;21042;47.620;12.188;2023-07-29T00:14:54;4.15;;;2.08;;
34828;SDS011;21042;47.620;12.188;2023-07-29T00:17:21;2.97;;;1.95;;
34828;SDS011;21042;47.620;12.188;2023-07-29T00:19:48;4.43;;;1.95;;
34828;SDS011;21042;47.620;12.188;2023-07-29T00:22:14;3.30;;;1.67;;
34828;SDS011;21042;47.620;12.188;2023-07-29T00:24:41;1.88;;;1.45;;
34828;SDS011;21042;47.620;12.188;2023-07-29T00:27:08;4.18;;;1.95;;
34828;SDS011;21042;47.620;12.188;2023-07-29T00:29:35;5.90;;;2.50;;
34828;SDS011;21042;47.620;12.188;2023-07-29T00:32:01;3.55;;;2.55;;
34828;SDS011;21042;47.620;12.188;2023-07-29T00:34:29;4.95;;;2.53;;
34828;SDS011;21042;47.620;12.188;2023-07-29T00:36:56;4.22;;;2.33;;
34828;SDS011;21042;47.620;12.188;2023-07-29T00:39:23;4.50;;;2.75;;
34828;SDS011;21042;47.620;12.188;2023-07-29T00:41:50;5.75;;;2.63;;
34828;SDS011;21042;47.620;12.188;2023-07-29T00:44:17;3.75;;;2.30;;
34828;SDS011;21042;47.620;12.188;2023-07-29T00:46:44;4.15;;;2.20;;
34828;SDS011;21042;47.620;12.188;2023-07-29T00:49:12;5.10;;;2.40;;
34828;SDS011;21042;47.620;12.188;2023-07-29T00:51:40;3.78;;;2.55;;
34828;SDS011;21042;47.620;12.188;2023-07-29T00:54:07;5.00;;;2.45;;
34828;SDS011;21042;47.620;12.188;2023-07-29T00:56:34;4.45;;;2.80;;
34828;SDS011;21042;47.620;12.188;2023-07-29T00:59:02;5.93;;;3.03;;
34828;SDS011;21042;47.620;12.188;2023-07-29T01:01:30;4.43;;;2.80;;
34828;SDS011;21042;47.620;12.188;2023-07-29T01:03:57;4.38;;;2.78;;
34828;SDS011;21042;47.620;12.188;2023-07-29T01:14:37;5.18;;;3.65;;
34828;SDS011;21042;47.620;12.188;2023-07-29T01:17:13;10.32;;;4.75;;
34828;SDS011;21042;47.620;12.188;2023-07-29T01:22:34;4.83;;;3.10;;
34828;SDS011;21042;47.620;12.188;2023-07-29T01:25:03;8.55;;;3.70;;
34828;SDS011;21042;47.620;12.188;2023-07-29T01:27:30;5.90;;;3.40;;
34828;SDS011;21042;47.620;12.188;2023-07-29T01:29:58;5.95;;;3.47;;
34828;SDS011;21042;47.620;12.188;2023-07-29T01:32:27;6.63;;;3.58;;
34828;SDS011;21042;47.620;12.188;2023-07-29T01:35:00;5.88;;;3.10;;
34828;SDS011;21042;47.620;12.188;2023-07-29T01:37:34;5.43;;;3.35;;
34828;SDS011;21042;47.620;12.188;2023-07-29T01:40:03;5.53;;;3.33;;
34828;SDS011;21042;47.620;12.188;2023-07-29T01:42:31;8.82;;;3.47;;
34828;SDS011;21042;47.620;12.188;2023-07-29T01:44:58;7.78;;;3.88;;
34828;SDS011;21042;47.620;12.188;2023-07-29T01:49:54;5.22;;;3.50;;
34828;SDS011;21042;47.620;12.188;2023-07-29T01:52:20;5.40;;;3.33;;
34828;SDS011;21042;47.620;12.188;2023-07-29T01:54:47;5.72;;;3.35;;
34828;SDS011;21042;47.620;12.188;2023-07-29T01:57:14;6.70;;;3.22;;
34828;SDS011;21042;47.620;12.188;2023-07-29T01:59:41;4.85;;;3.05;;
34828;SDS011;21042;47.620;12.188;2023-07-29T02:02:08;6.63;;;3.50;;
34828;SDS011;21042;47.620;12.188;2023-07-29T02:04:35;5.10;;;3.78;;
34828;SDS011;21042;47.620;12.188;2023-07-29T02:07:02;7.43;;;3.67;;
34828;SDS011;21042;47.620;12.188;2023-07-29T02:09:28;5.93;;;3.08;;
34828;SDS011;21042;47.620;12.188;2023-07-29T02:11:57;5.18;;;3.30;;
34828;SDS011;21042;47.620;12.188;2023-07-29T02:14:23;4.95;;;2.72;;
34828;SDS011;21042;47.620;12.188;2023-07-29T02:16:50;5.30;;;2.92;;
34828;SDS011;21042;47.620;12.188;2023-07-29T02:19:17;2.95;;;2.25;;
34828;SDS011;21042;47.620;12.188;2023-07-29T02:21:44;4.72;;;2.80;;
34828;SDS011;21042;47.620;12.188;2023-07-29T02:24:11;6.68;;;2.38;;
34828;SDS011;21042;47.620;12.188;2023-07-29T02:26:38;3.67;;;2.58;;
34828;SDS011;21042;47.620;12.188;2023-07-29T02:29:04;3.50;;;2.67;;
34828;SDS011;21042;47.620;12.188;2023-07-29T02:31:31;2.88;;;2.38;;
34828;SDS011;21042;47.620;12.188;2023-07-29T02:33:58;5.93;;;3.20;;
34828;SDS011;21042;47.620;12.188;2023-07-29T02:36:25;6.32;;;2.72;;
34828;SDS011;21042;47.620;12.188;2023-07-29T02:38:52;3.55;;;2.33;;
34828;SDS011;21042;47.620;12.188;2023-07-29T02:41:19;3.58;;;2.70;;
34828;SDS011;21042;47.620;12.188;2023-07-29T02:43:49;4.47;;;2.30;;
34828;SDS011;21042;47.620;12.188;2023-07-29T02:46:17;5.70;;;2.63;;
34828;SDS011;21042;47.620;12.188;2023-07-29T02:51:11;5.22;;;2.70;;
34828;SDS011;21042;47.620;12.188;2023-07-29T02:53:38;4.68;;;2.72;;
34828;SDS011;21042;47.620;12.188;2023-07-29T02:56:05;7.00;;;2.70;;
34828;SDS011;21042;47.620;12.188;2023-07-29T02:58:36;5.80;;;2.70;;
34828;SDS011;21042;47.620;12.188;2023-07-29T03:01:03;5.18;;;2.50;;
34828;SDS011;21042;47.620;12.188;2023-07-29T03:03:32;6.07;;;2.50;;
34828;SDS011;21042;47.620;12.188;2023-07-29T03:06:01;3.75;;;2.78;;
34828;SDS011;21042;47.620;12.188;2023-07-29T03:08:29;5.05;;;2.60;;
34828;SDS011;21042;47.620;12.188;2023-07-29T03:10:56;6.35;;;2.70;;
34828;SDS011;21042;47.620;12.188;2023-07-29T03:13:24;4.82;;;2.65;;
34828;SDS011;21042;47.620;12.188;2023-07-29T03:15:51;4.07;;;2.63;;
34828;SDS011;21042;47.620;12.188;2023-07-29T03:18:18;5.10;;;2.90;;
34828;SDS011;21042;47.620;12.188;2023-07-29T03:20:45;6.93;;;2.50;;
34828;SDS011;21042;47.620;12.188;2023-07-29T03:23:12;6.43;;;2.50;;
34828;SDS011;21042;47.620;12.188;2023-07-29T03:25:38;4.60;;;2.83;;
34828;SDS011;21042;47.620;12.188;2023-07-29T03:28:05;4.70;;;2.70;;
34828;SDS011;21042;47.620;12.188;2023-07-29T03:30:32;5.00;;;3.17;;
34828;SDS011;21042;47.620;12.188;2023-07-29T03:32:59;4.38;;;2.63;;
34828;SDS011;21042;47.620;12.188;2023-07-29T03:35:26;5.82;;;2.90;;
34828;SDS011;21042;47.620;12.188;2023-07-29T03:37:53;4.72;;;2.85;;
34828;SDS011;21042;47.620;12.188;2023-07-29T03:40:19;4.63;;;2.65;;
34828;SDS011;21042;47.620;12.188;2023-07-29T03:42:46;7.50;;;2.83;;
34828;SDS011;21042;47.620;12.188;2023-07-29T03:45:13;8.10;;;3.40;;
34828;SDS011;21042;47.620;12.188;2023-07-29T03:47:40;3.20;;;2.22;;
34828;SDS011;21042;47.620;12.188;2023-07-29T03:50:07;5.25;;;2.53;;
34828;SDS011;21042;47.620;12.188;2023-07-29T03:52:34;4.13;;;2.22;;
34828;SDS011;21042;47.620;12.188;2023-07-29T03:55:01;5.32;;;2.03;;
34828;SDS011;21042;47.620;12.188;2023-07-29T03:57:28;5.30;;;2.08;;
34828;SDS011;21042;47.620;12.188;2023-07-29T03:59:56;3.92;;;2.00;;
34828;SDS011;21042;47.620;12.188;2023-07-29T04:02:22;6.38;;;2.22;;
34828;SDS011;21042;47.620;12.188;2023-07-29T04:04:49;3.33;;;2.00;;
34828;SDS011;21042;47.620;12.188;2023-07-29T04:07:16;3.72;;;2.03;;
34828;SDS011;21042;47.620;12.188;2023-07-29T04:09:43;4.82;;;1.80;;
34828;SDS011;21042;47.620;12.188;2023-07-29T04:12:10;6.47;;;2.35;;
34828;SDS011;21042;47.620;12.188;2023-07-29T04:14:37;2.78;;;1.95;;
34828;SDS011;21042;47.620;12.188;2023-07-29T04:17:04;4.65;;;2.08;;
34828;SDS011;21042;47.620;12.188;2023-07-29T04:19:31;3.58;;;1.83;;
34828;SDS011;21042;47.620;12.188;2023-07-29T04:24:25;3.17;;;1.83;;
34828;SDS011;21042;47.620;12.188;2023-07-29T04:26:52;3.55;;;1.95;;
34828;SDS011;21042;47.620;12.188;2023-07-29T04:29:19;3.78;;;2.17;;
34828;SDS011;21042;47.620;12.188;2023-07-29T04:31:46;2.63;;;1.50;;
34828;SDS011;21042;47.620;12.188;2023-07-29T04:34:13;3.58;;;1.92;;
34828;SDS011;21042;47.620;12.188;2023-07-29T04:36:40;3.88;;;1.83;;
34828;SDS011;21042;47.620;12.188;2023-07-29T04:39:07;3.28;;;1.73;;
34828;SDS011;21042;47.620;12.188;2023-07-29T04:41:34;3.85;;;2.00;;
34828;SDS011;21042;47.620;12.188;2023-07-29T04:44:01;2.67;;;1.70;;
34828;SDS011;21042;47.620;12.188;2023-07-29T04:46:27;4.72;;;2.42;;
34828;SDS011;21042;47.620;12.188;2023-07-29T04:48:55;3.90;;;2.00;;
34828;SDS011;21042;47.620;12.188;2023-07-29T04:51:21;3.90;;;2.15;;
34828;SDS011;21042;47.620;12.188;2023-07-29T04:53:49;3.28;;;2.10;;
34828;SDS011;21042;47.620;12.188;2023-07-29T04:56:16;5.10;;;1.80;;
34828;SDS011;21042;47.620;12.188;2023-07-29T04:58:44;5.63;;;2.50;;
34828;SDS011;21042;47.620;12.188;2023-07-29T05:01:11;8.77;;;2.92;;
34828;SDS011;21042;47.620;12.188;2023-07-29T05:03:38;5.10;;;2.17;;
34828;SDS011;21042;47.620;12.188;2023-07-29T05:06:06;4.10;;;2.45;;
34828;SDS011;21042;47.620;12.188;2023-07-29T05:08:33;3.63;;;2.28;;
34828;SDS011;21042;47.620;12.188;2023-07-29T05:13:27;5.30;;;2.78;;
34828;SDS011;21042;47.620;12.188;2023-07-29T05:15:54;4.00;;;2.78;;
34828;SDS011;21042;47.620;12.188;2023-07-29T05:18:21;4.50;;;2.35;;
34828;SDS011;21042;47.620;12.188;2023-07-29T05:20:48;3.63;;;2.60;;
34828;SDS011;21042;47.620;12.188;2023-07-29T05:23:15;3.03;;;2.22;;
34828;SDS011;21042;47.620;12.188;2023-07-29T05:25:42;4.35;;;2.10;;
34828;SDS011;21042;47.620;12.188;2023-07-29T05:28:09;4.97;;;2.10;;
34828;SDS011;21042;47.620;12.188;2023-07-29T05:30:36;3.42;;;2.28;;
34828;SDS011;21042;47.620;12.188;2023-07-29T05:33:05;2.33;;;1.73;;
34828;SDS011;21042;47.620;12.188;2023-07-29T05:35:34;4.45;;;1.80;;
34828;SDS011;21042;47.620;12.188;2023-07-29T05:38:01;4.43;;;2.58;;
34828;SDS011;21042;47.620;12.188;2023-07-29T05:40:29;2.78;;;2.33;;
34828;SDS011;21042;47.620;12.188;2023-07-29T05:42:56;2.70;;;1.92;;
34828;SDS011;21042;47.620;12.188;2023-07-29T05:45:23;5.97;;;2.40;;
34828;SDS011;21042;47.620;12.188;2023-07-29T05:47:50;2.72;;;1.77;;
34828;SDS011;21042;47.620;12.188;2023-07-29T05:50:17;4.97;;;2.15;;
34828;SDS011;21042;47.620;12.188;2023-07-29T05:52:44;3.50;;;2.22;;
34828;SDS011;21042;47.620;12.188;2023-07-29T05:55:11;3.85;;;2.95;;
34828;SDS011;21042;47.620;12.188;2023-07-29T06:00:09;5.20;;;2.30;;
34828;SDS011;21042;47.620;12.188;2023-07-29T06:02:39;3.53;;;2.60;;
34828;SDS011;21042;47.620;12.188;2023-07-29T06:05:14;6.45;;;2.33;;
34828;SDS011;21042;47.620;12.188;2023-07-29T06:07:41;4.22;;;3.08;;
34828;SDS011;21042;47.620;12.188;2023-07-29T06:10:15;3.45;;;2.20;;
34828;SDS011;21042;47.620;12.188;2023-07-29T06:12:45;3.53;;;2.40;;
34828;SDS011;21042;47.620;12.188;2023-07-29T06:15:13;6.82;;;2.40;;
34828;SDS011;21042;47.620;12.188;2023-07-29T06:17:40;5.22;;;2.13;;
34828;SDS011;21042;47.620;12.188;2023-07-29T06:20:07;2.88;;;2.40;;
34828;SDS011;21042;47.620;12.188;2023-07-29T06:22:34;7.05;;;2.42;;
34828;SDS011;21042;47.620;12.188;2023-07-29T06:25:01;3.95;;;2.30;;
34828;SDS011;21042;47.620;12.188;2023-07-29T06:29:55;3.67;;;2.42;;
34828;SDS011;21042;47.620;12.188;2023-07-29T06:32:22;5.45;;;2.72;;
34828;SDS011;21042;47.620;12.188;2023-07-29T06:34:49;4.05;;;3.05;;
34828;SDS011;21042;47.620;12.188;2023-07-29T06:37:18;3.20;;;2.30;;
34828;SDS011;21042;47.620;12.188;2023-07-29T06:39:44;4.63;;;2.90;;
34828;SDS011;21042;47.620;12.188;2023-07-29T06:42:11;3.63;;;2.78;;
34828;SDS011;21042;47.620;12.188;2023-07-29T06:44:38;4.63;;;2.72;;
34828;SDS011;21042;47.620;12.188;2023-07-29T06:47:06;5.20;;;3.03;;
34828;SDS011;21042;47.620;12.188;2023-07-29T06:52:00;6.35;;;3.22;;
34828;SDS011;21042;47.620;12.188;2023-07-29T06:54:27;4.63;;;2.97;;
34828;SDS011;21042;47.620;12.188;2023-07-29T06:56:54;3.60;;;3.10;;
34828;SDS011;21042;47.620;12.188;2023-07-29T06:59:21;5.63;;;3.30;;
34828;SDS011;21042;47.620;12.188;2023-07-29T07:01:47;4.47;;;3.13;;
34828;SDS011;21042;47.620;12.188;2023-07-29T07:04:14;6.40;;;3.25;;
34828;SDS011;21042;47.620;12.188;2023-07-29T07:06:41;4.53;;;3.47;;
34828;SDS011;21042;47.620;12.188;2023-07-29T07:09:08;4.50;;;3.42;;
34828;SDS011;21042;47.620;12.188;2023-07-29T07:11:34;4.13;;;2.90;;
34828;SDS011;21042;47.620;12.188;2023-07-29T07:14:01;5.68;;;3.30;;
34828;SDS011;21042;47.620;12.188;2023-07-29T07:16:28;4.15;;;3.20;;
34828;SDS011;21042;47.620;12.188;2023-07-29T07:18:58;6.85;;;3.10;;
34828;SDS011;21042;47.620;12.188;2023-07-29T07:21:25;8.75;;;3.17;;
34828;SDS011;21042;47.620;12.188;2023-07-29T07:23:51;5.20;;;3.03;;
34828;SDS011;21042;47.620;12.188;2023-07-29T07:26:18;4.65;;;3.13;;
34828;SDS011;21042;47.620;12.188;2023-07-29T07:28:45;4.43;;;3.45;;
34828;SDS011;21042;47.620;12.188;2023-07-29T07:31:12;3.97;;;3.13;;
34828;SDS011;21042;47.620;12.188;2023-07-29T07:33:38;3.42;;;2.60;;
34828;SDS011;21042;47.620;12.188;2023-07-29T07:36:05;6.13;;;3.90;;
34828;SDS011;21042;47.620;12.188;2023-07-29T07:38:32;4.03;;;3.35;;
34828;SDS011;21042;47.620;12.188;2023-07-29T07:40:59;4.30;;;3.13;;
34828;SDS011;21042;47.620;12.188;2023-07-29T07:43:25;4.55;;;3.50;;
34828;SDS011;21042;47.620;12.188;2023-07-29T07:45:57;5.95;;;4.47;;
34828;SDS011;21042;47.620;12.188;2023-07-29T07:48:25;6.80;;;3.58;;
34828;SDS011;21042;47.620;12.188;2023-07-29T07:50:52;7.30;;;4.20;;
34828;SDS011;21042;47.620;12.188;2023-07-29T07:53:19;3.35;;;2.70;;
34828;SDS011;21042;47.620;12.188;2023-07-29T07:55:46;4.03;;;2.90;;
34828;SDS011;21042;47.620;12.188;2023-07-29T07:58:13;4.85;;;3.28;;
34828;SDS011;21042;47.620;12.188;2023-07-29T08:00:40;5.25;;;3.38;;
34828;SDS011;21042;47.620;12.188;2023-07-29T08:03:07;4.95;;;3.38;;
34828;SDS011;21042;47.620;12.188;2023-07-29T08:05:34;5.00;;;3.05;;
34828;SDS011;21042;47.620;12.188;2023-07-29T08:08:00;4.32;;;3.33;;
34828;SDS011;21042;47.620;12.188;2023-07-29T08:10:27;3.28;;;2.70;;
34828;SDS011;21042;47.620;12.188;2023-07-29T08:12:54;5.15;;;2.95;;
34828;SDS011;21042;47.620;12.188;2023-07-29T08:15:21;3.97;;;2.67;;
34828;SDS011;21042;47.620;12.188;2023-07-29T08:17:47;4.82;;;3.38;;
34828;SDS011;21042;47.620;12.188;2023-07-29T08:20:14;6.72;;;3.83;;
34828;SDS011;21042;47.620;12.188;2023-07-29T08:22:41;5.13;;;3.35;;
34828;SDS011;21042;47.620;12.188;2023-07-29T08:25:08;4.47;;;3.50;;
34828;SDS011;21042;47.620;12.188;2023-07-29T08:27:35;6.60;;;3.72;;
34828;SDS011;21042;47.620;12.188;2023-07-29T08:30:02;5.75;;;3.38;;
34828;SDS011;21042;47.620;12.188;2023-07-29T08:32:29;4.07;;;3.00;;
34828;SDS011;21042;47.620;12.188;2023-07-29T08:34:55;4.38;;;3.38;;
34828;SDS011;21042;47.620;12.188;2023-07-29T08:37:22;4.28;;;2.88;;
34828;SDS011;21042;47.620;12.188;2023-07-29T08:39:49;4.05;;;2.72;;
34828;SDS011;21042;47.620;12.188;2023-07-29T08:42:16;4.95;;;2.92;;
34828;SDS011;21042;47.620;12.188;2023-07-29T08:44:45;5.13;;;2.65;;
34828;SDS011;21042;47.620;12.188;2023-07-29T08:47:15;6.78;;;2.75;;
34828;SDS011;21042;47.620;12.188;2023-07-29T08:49:43;7.10;;;3.67;;
34828;SDS011;21042;47.620;12.188;2023-07-29T08:52:12;2.65;;;2.22;;
34828;SDS011;21042;47.620;12.188;2023-07-29T08:54:40;5.88;;;2.90;;
34828;SDS011;21042;47.620;12.188;2023-07-29T08:57:07;4.55;;;3.10;;
34828;SDS011;21042;47.620;12.188;2023-07-29T08:59:35;2.97;;;2.33;;
34828;SDS011;21042;47.620;12.188;2023-07-29T09:04:29;3.13;;;2.38;;
34828;SDS011;21042;47.620;12.188;2023-07-29T09:06:56;5.07;;;2.75;;
34828;SDS011;21042;47.620;12.188;2023-07-29T09:09:25;4.82;;;2.42;;
34828;SDS011;21042;47.620;12.188;2023-07-29T09:11:51;4.22;;;2.53;;
34828;SDS011;21042;47.620;12.188;2023-07-29T09:14:18;4.28;;;2.55;;
34828;SDS011;21042;47.620;12.188;2023-07-29T09:16:46;4.57;;;2.35;;
34828;SDS011;21042;47.620;12.188;2023-07-29T09:19:13;4.07;;;2.80;;
34828;SDS011;21042;47.620;12.188;2023-07-29T09:21:39;8.75;;;2.20;;
34828;SDS011;21042;47.620;12.188;2023-07-29T09:24:07;4.75;;;2.33;;
34828;SDS011;21042;47.620;12.188;2023-07-29T09:26:35;5.50;;;2.60;;
34828;SDS011;21042;47.620;12.188;2023-07-29T09:29:02;5.97;;;2.28;;
34828;SDS011;21042;47.620;12.188;2023-07-29T09:31:29;7.50;;;2.15;;
34828;SDS011;21042;47.620;12.188;2023-07-29T09:36:25;2.38;;;2.10;;
34828;SDS011;21042;47.620;12.188;2023-07-29T09:38:52;2.53;;;1.98;;
34828;SDS011;21042;47.620;12.188;2023-07-29T09:41:24;3.00;;;2.08;;
34828;SDS011;21042;47.620;12.188;2023-07-29T09:43:55;3.60;;;2.40;;
34828;SDS011;21042;47.620;12.188;2023-07-29T09:46:24;4.85;;;2.10;;
34828;SDS011;21042;47.620;12.188;2023-07-29T09:48:53;5.97;;;1.80;;
34828;SDS011;21042;47.620;12.188;2023-07-29T09:51:22;4.55;;;2.22;;
34828;SDS011;21042;47.620;12.188;2023-07-29T09:53:49;3.78;;;2.03;;
34828;SDS011;21042;47.620;12.188;2023-07-29T09:56:18;3.20;;;2.10;;
34828;SDS011;21042;47.620;12.188;2023-07-29T09:58:55;2.80;;;2.25;;
34828;SDS011;21042;47.620;12.188;2023-07-29T10:01:23;3.05;;;2.00;;
34828;SDS011;21042;47.620;12.188;2023-07-29T10:03:50;4.07;;;1.77;;
34828;SDS011;21042;47.620;12.188;2023-07-29T10:06:18;1.83;;;1.55;;
34828;SDS011;21042;47.620;12.188;2023-07-29T10:08:46;3.30;;;2.13;;
34828;SDS011;21042;47.620;12.188;2023-07-29T10:11:15;5.78;;;1.85;;
34828;SDS011;21042;47.620;12.188;2023-07-29T10:13:42;6.13;;;2.25;;
34828;SDS011;21042;47.620;12.188;2023-07-29T10:16:25;2.70;;;2.13;;
34828;SDS011;21042;47.620;12.188;2023-07-29T10:18:52;2.88;;;1.73;;
34828;SDS011;21042;47.620;12.188;2023-07-29T10:21:21;5.53;;;2.22;;
34828;SDS011;21042;47.620;12.188;2023-07-29T10:23:49;2.17;;;1.70;;
34828;SDS011;21042;47.620;12.188;2023-07-29T10:26:21;5.25;;;1.75;;
34828;SDS011;21042;47.620;12.188;2023-07-29T10:28:49;4.55;;;1.77;;
34828;SDS011;21042;47.620;12.188;2023-07-29T10:31:19;3.17;;;1.77;;
34828;SDS011;21042;47.620;12.188;2023-07-29T10:33:48;2.63;;;2.00;;
34828;SDS011;21042;47.620;12.188;2023-07-29T10:36:16;3.58;;;2.22;;
34828;SDS011;21042;47.620;12.188;2023-07-29T10:38:46;2.40;;;1.63;;
34828;SDS011;21042;47.620;12.188;2023-07-29T10:43:39;2.15;;;1.75;;
34828;SDS011;21042;47.620;12.188;2023-07-29T10:46:16;2.35;;;1.75;;
34828;SDS011;21042;47.620;12.188;2023-07-29T10:51:36;3.83;;;2.13;;
34828;SDS011;21042;47.620;12.188;2023-07-29T10:54:13;5.45;;;2.03;;
34828;SDS011;21042;47.620;12.188;2023-07-29T10:56:41;2.75;;;1.85;;
34828;SDS011;21042;47.620;12.188;2023-07-29T11:01:40;3.58;;;2.20;;
34828;SDS011;21042;47.620;12.188;2023-07-29T11:04:25;2.33;;;1.80;;
34828;SDS011;21042;47.620;12.188;2023-07-29T11:09:45;4.22;;;2.10;;
34828;SDS011;21042;47.620;12.188;2023-07-29T11:15:13;2.85;;;1.88;;
34828;SDS011;21042;47.620;12.188;2023-07-29T11:20:28;2.33;;;1.88;;
34828;SDS011;21042;47.620;12.188;2023-07-29T11:22:58;2.72;;;1.58;;
34828;SDS011;21042;47.620;12.188;2023-07-29T11:25:27;3.10;;;1.80;;
34828;SDS011;21042;47.620;12.188;2023-07-29T11:27:56;1.88;;;1.67;;
34828;SDS011;21042;47.620;12.188;2023-07-29T11:30:24;2.13;;;1.80;;
34828;SDS011;21042;47.620;12.188;2023-07-29T11:32:55;2.75;;;2.22;;
34828;SDS011;21042;47.620;12.188;2023-07-29T11:35:24;2.53;;;1.50;;
34828;SDS011;21042;47.620;12.188;2023-07-29T11:37:51;3.88;;;1.98;;
34828;SDS011;21042;47.620;12.188;2023-07-29T11:40:20;2.35;;;2.00;;
34828;SDS011;21042;47.620;12.188;2023-07-29T11:42:49;6.65;;;2.00;;
34828;SDS011;21042;47.620;12.188;2023-07-29T11:45:17;4.75;;;1.80;;
34828;SDS011;21042;47.620;12.188;2023-07-29T11:47:45;2.78;;;2.20;;
34828;SDS011;21042;47.620;12.188;2023-07-29T11:50:13;2.55;;;2.05;;
34828;SDS011;21042;47.620;12.188;2023-07-29T11:52:41;2.53;;;1.58;;
34828;SDS011;21042;47.620;12.188;2023-07-29T11:55:10;3.50;;;2.05;;
34828;SDS011;21042;47.620;12.188;2023-07-29T11:57:38;2.85;;;1.95;;
34828;SDS011;21042;47.620;12.188;2023-07-29T12:00:06;4.07;;;1.55;;
34828;SDS011;21042;47.620;12.188;2023-07-29T12:02:37;2.97;;;1.95;;
34828;SDS011;21042;47.620;12.188;2023-07-29T12:05:05;2.55;;;1.85;;
34828;SDS011;21042;47.620;12.188;2023-07-29T12:07:33;2.13;;;1.55;;
34828;SDS011;21042;47.620;12.188;2023-07-29T12:12:29;3.65;;;2.47;;
34828;SDS011;21042;47.620;12.188;2023-07-29T12:14:56;2.80;;;1.90;;
34828;SDS011;21042;47.620;12.188;2023-07-29T12:17:23;28.38;;;9.27;;
34828;SDS011;21042;47.620;12.188;2023-07-29T12:22:20;15.63;;;5.07;;
34828;SDS011;21042;47.620;12.188;2023-07-29T12:24:48;9.57;;;2.90;;
34828;SDS011;21042;47.620;12.188;2023-07-29T12:27:18;4.15;;;2.08;;
34828;SDS011;21042;47.620;12.188;2023-07-29T12:29:48;2.95;;;2.10;;
34828;SDS011;21042;47.620;12.188;2023-07-29T12:32:18;4.43;;;3.75;;
34828;SDS011;21042;47.620;12.188;2023-07-29T12:34:45;4.75;;;2.10;;
34828;SDS011;21042;47.620;12.188;2023-07-29T12:37:12;2.60;;;2.05;;
34828;SDS011;21042;47.620;12.188;2023-07-29T12:39:41;5.63;;;2.42;;
34828;SDS011;21042;47.620;12.188;2023-07-29T12:42:09;4.82;;;2.10;;
34828;SDS011;21042;47.620;12.188;2023-07-29T12:44:36;3.20;;;1.98;;
34828;SDS011;21042;47.620;12.188;2023-07-29T12:47:05;5.18;;;2.50;;
34828;SDS011;21042;47.620;12.188;2023-07-29T12:49:32;3.45;;;2.28;;
34828;SDS011;21042;47.620;12.188;2023-07-29T12:51:59;3.42;;;1.95;;
34828;SDS011;21042;47.620;12.188;2023-07-29T12:54:26;3.30;;;2.03;;
34828;SDS011;21042;47.620;12.188;2023-07-29T12:59:20;3.38;;;2.08;;
34828;SDS011;21042;47.620;12.188;2023-07-29T13:01:47;3.17;;;2.05;;
34828;SDS011;21042;47.620;12.188;2023-07-29T13:04:14;3.05;;;2.35;;
34828;SDS011;21042;47.620;12.188;2023-07-29T13:06:41;4.22;;;2.10;;
34828;SDS011;21042;47.620;12.188;2023-07-29T13:11:34;3.63;;;2.47;;
34828;SDS011;21042;47.620;12.188;2023-07-29T13:14:01;2.53;;;2.00;;
34828;SDS011;21042;47.620;12.188;2023-07-29T13:18:55;2.72;;;2.22;;
34828;SDS011;21042;47.620;12.188;2023-07-29T13:21:23;3.78;;;2.72;;
34828;SDS011;21042;47.620;12.188;2023-07-29T13:23:50;2.55;;;2.35;;
34828;SDS011;21042;47.620;12.188;2023-07-29T13:26:18;4.65;;;2.70;;
34828;SDS011;21042;47.620;12.188;2023-07-29T13:28:44;6.25;;;3.72;;
34828;SDS011;21042;47.620;12.188;2023-07-29T13:33:39;3.72;;;2.95;;
34828;SDS011;21042;47.620;12.188;2023-07-29T13:36:06;3.40;;;2.90;;
34828;SDS011;21042;47.620;12.188;2023-07-29T13:38:34;7.93;;;2.92;;
34828;SDS011;21042;47.620;12.188;2023-07-29T13:43:28;4.10;;;3.13;;
34828;SDS011;21042;47.620;12.188;2023-07-29T13:45:55;4.05;;;2.78;;
34828;SDS011;21042;47.620;12.188;2023-07-29T13:48:22;5.15;;;2.78;;
34828;SDS011;21042;47.620;12.188;2023-07-29T13:53:17;5.53;;;3.40;;
34828;SDS011;21042;47.620;12.188;2023-07-29T13:55:44;6.38;;;4.10;;
34828;SDS011;21042;47.620;12.188;2023-07-29T14:00:37;5.47;;;4.03;;
34828;SDS011;21042;47.620;12.188;2023-07-29T14:03:04;7.45;;;3.25;;
34828;SDS011;21042;47.620;12.188;2023-07-29T14:07:57;3.95;;;3.40;;
34828;SDS011;21042;47.620;12.188;2023-07-29T14:10:24;4.82;;;3.60;;
34828;SDS011;21042;47.620;12.188;2023-07-29T14:12:51;6.70;;;3.40;;
34828;SDS011;21042;47.620;12.188;2023-07-29T14:15:18;4.55;;;3.78;;
34828;SDS011;21042;47.620;12.188;2023-07-29T14:20:13;4.68;;;3.88;;
34828;SDS011;21042;47.620;12.188;2023-07-29T14:22:40;7.50;;;3.38;;
34828;SDS011;21042;47.620;12.188;2023-07-29T14:25:06;5.22;;;3.42;;
34828;SDS011;21042;47.620;12.188;2023-07-29T14:27:34;6.97;;;4.10;;
34828;SDS011;21042;47.620;12.188;2023-07-29T14:30:00;5.53;;;3.90;;
34828;SDS011;21042;47.620;12.188;2023-07-29T14:32:28;6.95;;;3.97;;
34828;SDS011;21042;47.620;12.188;2023-07-29T14:37:22;5.10;;;3.80;;
34828;SDS011;21042;47.620;12.188;2023-07-29T14:39:48;5.05;;;3.92;;
34828;SDS011;21042;47.620;12.188;2023-07-29T14:44:42;7.25;;;3.97;;
34828;SDS011;21042;47.620;12.188;2023-07-29T14:47:09;5.22;;;3.70;;
34828;SDS011;21042;47.620;12.188;2023-07-29T14:49:35;7.10;;;4.10;;
34828;SDS011;21042;47.620;12.188;2023-07-29T14:52:02;5.03;;;3.70;;
34828;SDS011;21042;47.620;12.188;2023-07-29T14:56:56;5.63;;;3.65;;
34828;SDS011;21042;47.620;12.188;2023-07-29T14:59:23;7.10;;;4.30;;
34828;SDS011;21042;47.620;12.188;2023-07-29T15:01:50;5.65;;;3.75;;
34828;SDS011;21042;47.620;12.188;2023-07-29T15:04:16;7.35;;;3.50;;
34828;SDS011;21042;47.620;12.188;2023-07-29T15:06:43;4.82;;;3.65;;
34828;SDS011;21042;47.620;12.188;2023-07-29T15:09:10;9.32;;;3.88;;
34828;SDS011;21042;47.620;12.188;2023-07-29T15:11:37;4.22;;;3.30;;
34828;SDS011;21042;47.620;12.188;2023-07-29T15:14:04;6.90;;;3.67;;
34828;SDS011;21042;47.620;12.188;2023-07-29T15:16:30;5.63;;;3.38;;
34828;SDS011;21042;47.620;12.188;2023-07-29T15:18:57;5.18;;;3.70;;
34828;SDS011;21042;47.620;12.188;2023-07-29T15:21:25;7.60;;;3.80;;
34828;SDS011;21042;47.620;12.188;2023-07-29T15:23:51;6.38;;;4.10;;
34828;SDS011;21042;47.620;12.188;2023-07-29T15:26:18;5.47;;;3.65;;
34828;SDS011;21042;47.620;12.188;2023-07-29T15:28:45;5.97;;;3.58;;
34828;SDS011;21042;47.620;12.188;2023-07-29T15:31:12;6.65;;;3.75;;
34828;SDS011;21042;47.620;12.188;2023-07-29T15:33:39;6.85;;;4.35;;
34828;SDS011;21042;47.620;12.188;2023-07-29T15:36:07;8.90;;;4.53;;
34828;SDS011;21042;47.620;12.188;2023-07-29T15:38:33;20.92;;;6.15;;
34828;SDS011;21042;47.620;12.188;2023-07-29T15:41:01;8.30;;;4.43;;
34828;SDS011;21042;47.620;12.188;2023-07-29T15:43:28;14.35;;;6.18;;
34828;SDS011;21042;47.620;12.188;2023-07-29T15:45:55;12.35;;;5.28;;
34828;SDS011;21042;47.620;12.188;2023-07-29T15:48:23;9.00;;;5.13;;
34828;SDS011;21042;47.620;12.188;2023-07-29T15:50:50;7.93;;;5.07;;
34828;SDS011;21042;47.620;12.188;2023-07-29T15:53:17;10.45;;;5.95;;
34828;SDS011;21042;47.620;12.188;2023-07-29T15:55:44;11.57;;;5.78;;
34828;SDS011;21042;47.620;12.188;2023-07-29T15:58:10;15.95;;;6.65;;
34828;SDS011;21042;47.620;12.188;2023-07-29T16:00:37;9.45;;;5.28;;